Sandoval, Illinois
Current Conditions -  °F | °C
As of 4:35 AM on Saturday 25 Oct 2014 (Local Time) from KENL Reporting Station
Clear Clear  
Wind Chill: 57°   Ceiling: Unl
Heat Index: 57°   Visibility: 10mi
Dew Point: 53°   Wind: 3mph
Humidity: 87%   Direction: 220°SW
Pressure: 29.99"   Gusts: NA
Location:  38.62°N, 89.11°W
Report Text: KENL 250935Z AUTO 22003KT 10SM CLR 14/12 A2999 RMK AO2 T01370115
Loading
Personal Weather Stations






























Interactive Weather Map
Tropical Storm Tracking
New forecast layout! Learn more

10-Day Weather Forecast

Advertisements
Track Severe Weather on mobile